Time;durP1;ratioP1;P1;durP2;ratioP2;P2;SDS_P1;SDS_P2;PMS_P1;PMS_P2;Temp;Humidity;BMP_temperature;BMP_pressure;BME280_temperature;BME280_humidity;BME280_pressure;Samples;Min_cycle;Max_cycle;Signal;HPM_P1;HPM_P2
2024/01/10 00:00:06;;;;;;;8.90;8.00;;;-4.10;99.90;;;;;;5068271;28;20408;-71
2024/01/10 00:02:32;;;;;;;10.47;8.43;;;-4.10;99.90;;;;;;5068627;28;20412;-71
2024/01/10 00:04:59;;;;;;;9.30;8.40;;;-4.20;99.90;;;;;;5061892;28;20835;-71
2024/01/10 00:07:26;;;;;;;10.13;7.90;;;-4.10;99.90;;;;;;5056350;28;20414;-71
2024/01/10 00:09:53;;;;;;;8.95;8.05;;;-4.10;99.90;;;;;;5065678;28;20412;-71
2024/01/10 00:12:19;;;;;;;8.55;7.28;;;-4.10;99.90;;;;;;5062428;28;20416;-71
2024/01/10 00:14:48;;;;;;;8.77;7.88;;;-4.10;99.90;;;;;;5057047;28;20424;-72
2024/01/10 00:17:15;;;;;;;7.72;6.72;;;-4.10;99.90;;;;;;5067361;28;20909;-71
2024/01/10 00:19:41;;;;;;;8.52;7.38;;;-4.10;99.90;;;;;;5057540;28;20429;-71
2024/01/10 00:22:08;;;;;;;8.95;7.68;;;-4.10;99.90;;;;;;5059554;28;20418;-72
2024/01/10 00:24:35;;;;;;;9.02;7.20;;;-4.20;99.90;;;;;;5052765;28;20417;-71
2024/01/10 00:27:01;;;;;;;8.57;7.40;;;-4.20;99.90;;;;;;5068485;28;20411;-71
2024/01/10 00:29:28;;;;;;;7.60;6.80;;;-4.30;99.90;;;;;;5067110;28;20890;-70
2024/01/10 00:31:59;;;;;;;8.27;7.00;;;-4.30;99.90;;;;;;5058508;28;20437;-71
2024/01/10 00:34:26;;;;;;;7.75;6.95;;;-4.30;99.90;;;;;;5063193;28;20433;-70
2024/01/10 00:36:53;;;;;;;8.30;6.80;;;-4.40;99.90;;;;;;5054796;28;20424;-71
2024/01/10 00:39:20;;;;;;;7.35;6.53;;;-4.40;99.90;;;;;;5061596;28;21043;-72
2024/01/10 00:41:46;;;;;;;8.15;7.15;;;-4.50;99.90;;;;;;5068175;28;20419;-72
2024/01/10 00:44:13;;;;;;;8.07;7.27;;;-4.50;99.90;;;;;;5065227;28;20524;-70
2024/01/10 00:46:40;;;;;;;8.60;6.85;;;-4.50;99.90;;;;;;5057022;28;20421;-70
2024/01/10 00:49:08;;;;;;;9.57;7.70;;;-4.50;99.90;;;;;;5060453;28;20440;-70
2024/01/10 00:51:35;;;;;;;8.15;6.57;;;-4.50;99.90;;;;;;5050395;28;20438;-71
2024/01/10 00:54:01;;;;;;;7.43;6.28;;;-4.60;99.90;;;;;;5065599;28;20869;-71
2024/01/10 00:56:28;;;;;;;8.25;7.07;;;-4.50;99.90;;;;;;5055482;28;20411;-70
2024/01/10 00:58:57;;;;;;;7.60;6.37;;;-4.50;99.90;;;;;;5066614;28;20775;-71
2024/01/10 01:01:24;;;;;;;8.10;6.60;;;-4.50;99.60;;;;;;5068349;28;20419;-70
2024/01/10 01:03:51;;;;;;;7.50;6.40;;;-4.50;99.30;;;;;;5057557;28;20441;-70
2024/01/10 01:06:19;;;;;;;6.90;6.20;;;-4.40;99.10;;;;;;5056283;28;20435;-70
2024/01/10 01:08:46;;;;;;;7.13;6.40;;;-4.40;99.40;;;;;;5060367;28;20412;-70
2024/01/10 01:11:14;;;;;;;7.75;6.40;;;-4.40;99.40;;;;;;5056314;28;20519;-71
2024/01/10 01:13:41;;;;;;;7.80;6.50;;;-4.50;99.50;;;;;;5067263;28;20890;-70
2024/01/10 01:16:08;;;;;;;7.15;5.80;;;-4.40;99.00;;;;;;5066873;28;20850;-72
2024/01/10 01:18:35;;;;;;;6.47;5.88;;;-4.40;98.50;;;;;;5061304;28;20935;-71
2024/01/10 01:21:02;;;;;;;6.72;5.80;;;-4.40;97.90;;;;;;5065408;28;20411;-71
2024/01/10 01:23:30;;;;;;;7.30;6.40;;;-4.40;98.50;;;;;;5060144;28;20820;-70
2024/01/10 01:25:57;;;;;;;7.30;6.05;;;-4.40;98.50;;;;;;5066722;28;20423;-72
2024/01/10 01:28:24;;;;;;;7.03;5.87;;;-4.40;98.70;;;;;;5066420;28;20434;-71
2024/01/10 01:30:51;;;;;;;6.90;5.72;;;-4.40;98.10;;;;;;5052308;28;20936;-70
2024/01/10 01:33:17;;;;;;;6.78;6.07;;;-4.50;98.40;;;;;;5059884;28;20411;-70
2024/01/10 01:35:44;;;;;;;7.18;6.20;;;-4.50;98.40;;;;;;5054439;28;20412;-70
2024/01/10 01:38:11;;;;;;;7.07;6.07;;;-4.50;98.20;;;;;;5046308;28;20930;-71
2024/01/10 01:40:39;;;;;;;7.93;6.18;;;-4.50;97.80;;;;;;5050594;28;20413;-71
2024/01/10 01:43:19;;;;;;;5.90;5.30;;;-4.50;97.30;;;;;;5067472;28;20442;-71
2024/01/10 01:45:46;;;;;;;6.47;5.40;;;-4.60;97.30;;;;;;5066173;28;20455;-71
2024/01/10 01:48:13;;;;;;;6.32;5.72;;;-4.60;97.30;;;;;;5057212;28;20436;-70
2024/01/10 01:50:40;;;;;;;6.40;5.22;;;-4.50;97.70;;;;;;5053167;28;20428;-72
2024/01/10 01:53:07;;;;;;;6.47;5.25;;;-4.50;97.70;;;;;;5061840;28;21030;-72
2024/01/10 01:55:34;;;;;;;8.38;5.90;;;-4.60;97.20;;;;;;5079037;23;21171;-63
2024/01/10 01:58:02;;;;;;;6.60;5.70;;;-4.60;97.00;;;;;;5039640;28;20537;-63
2024/01/10 02:00:30;;;;;;;7.10;5.68;;;-4.60;96.70;;;;;;5043115;28;20808;-63
2024/01/10 02:02:59;;;;;;;6.57;5.50;;;-4.60;97.30;;;;;;5041699;28;20419;-62
2024/01/10 02:05:26;;;;;;;7.23;5.67;;;-4.70;97.30;;;;;;5036881;28;20490;-63
2024/01/10 02:07:55;;;;;;;7.20;5.90;;;-4.70;96.40;;;;;;5043613;28;20438;-63
2024/01/10 02:10:22;;;;;;;6.85;5.90;;;-4.70;97.60;;;;;;5045849;28;20399;-63
2024/01/10 02:12:49;;;;;;;6.47;5.72;;;-4.60;98.10;;;;;;5045150;28;20421;-63
2024/01/10 02:15:17;;;;;;;7.35;5.72;;;-4.60;97.30;;;;;;5044456;28;20407;-64
2024/01/10 02:17:44;;;;;;;7.35;6.60;;;-4.60;97.80;;;;;;5044628;28;20440;-64
2024/01/10 02:20:12;;;;;;;7.70;6.47;;;-4.60;97.70;;;;;;5050819;28;20409;-64
2024/01/10 02:22:38;;;;;;;8.45;6.78;;;-4.60;97.90;;;;;;5043563;28;20411;-64
2024/01/10 02:25:07;;;;;;;6.70;6.00;;;-4.60;97.60;;;;;;5038719;28;20438;-65
2024/01/10 02:27:35;;;;;;;7.22;6.22;;;-4.60;97.70;;;;;;5038475;28;20482;-64
2024/01/10 02:30:03;;;;;;;7.05;6.35;;;-4.60;98.20;;;;;;5038494;28;20422;-64
2024/01/10 02:32:30;;;;;;;7.40;6.70;;;-4.60;97.90;;;;;;5037383;28;20435;-64
2024/01/10 02:34:57;;;;;;;5.70;5.00;;;-4.60;97.80;;;;;;5037522;28;20944;-64
2024/01/10 02:37:24;;;;;;;6.05;5.45;;;-4.70;97.80;;;;;;5034925;28;20490;-64
2024/01/10 02:39:51;;;;;;;6.10;5.15;;;-4.70;97.60;;;;;;5040966;28;20418;-64
2024/01/10 02:42:19;;;;;;;5.80;4.80;;;-4.70;97.90;;;;;;5042478;28;20423;-64
2024/01/10 02:44:46;;;;;;;5.53;5.00;;;-4.60;96.60;;;;;;5045468;28;20415;-64
2024/01/10 02:47:13;;;;;;;5.90;4.80;;;-4.60;96.60;;;;;;5029157;28;20457;-65
2024/01/10 02:49:40;;;;;;;5.53;4.80;;;-4.60;95.50;;;;;;5027496;28;20759;-64
2024/01/10 02:52:07;;;;;;;5.57;4.82;;;-4.70;95.50;;;;;;5026887;28;20454;-64
2024/01/10 02:54:33;;;;;;;6.65;5.40;;;-4.70;95.70;;;;;;5028083;28;20419;-64
2024/01/10 02:57:00;;;;;;;5.53;5.03;;;-4.60;97.00;;;;;;5028668;28;20410;-64
2024/01/10 02:59:28;;;;;;;5.05;4.28;;;-4.60;96.40;;;;;;5027372;28;20417;-64
2024/01/10 03:01:55;;;;;;;5.60;4.70;;;-4.70;95.80;;;;;;5028320;28;20872;-64
2024/01/10 03:04:22;;;;;;;6.30;4.60;;;-4.70;96.00;;;;;;5026554;28;20510;-65
2024/01/10 03:06:48;;;;;;;6.82;5.03;;;-4.80;95.90;;;;;;5026664;28;20415;-66
2024/01/10 03:09:15;;;;;;;5.28;4.50;;;-4.80;96.40;;;;;;5025679;28;20858;-64
2024/01/10 03:11:42;;;;;;;6.80;6.00;;;-4.80;97.00;;;;;;5027815;28;20431;-65
2024/01/10 03:14:09;;;;;;;6.10;5.38;;;-4.70;97.20;;;;;;5027431;28;20415;-64
2024/01/10 03:16:38;;;;;;;6.28;5.13;;;-4.60;98.60;;;;;;5033688;28;20621;-64
2024/01/10 03:19:04;;;;;;;8.27;6.00;;;-4.60;98.70;;;;;;5026807;28;20415;-65
2024/01/10 03:21:31;;;;;;;7.35;5.80;;;-4.50;98.90;;;;;;5026816;28;20866;-64
2024/01/10 03:23:59;;;;;;;6.60;5.90;;;-4.50;99.00;;;;;;5027294;28;20899;-64
2024/01/10 03:26:27;;;;;;;7.17;5.80;;;-4.50;98.50;;;;;;5027633;28;20430;-64
2024/01/10 03:28:54;;;;;;;7.70;5.80;;;-4.50;98.40;;;;;;5032739;28;20426;-65
2024/01/10 03:31:21;;;;;;;7.75;5.80;;;-4.60;98.10;;;;;;5027050;28;20458;-64
2024/01/10 03:33:50;;;;;;;7.22;6.35;;;-4.70;98.20;;;;;;5027143;28;20443;-64
2024/01/10 03:36:18;;;;;;;8.93;7.03;;;-4.80;98.80;;;;;;5034121;28;20495;-63
2024/01/10 03:38:45;;;;;;;8.43;6.50;;;-4.80;99.60;;;;;;5048493;28;20395;-64
2024/01/10 03:41:14;;;;;;;7.57;6.40;;;-4.70;99.90;;;;;;5049426;28;20486;-63
2024/01/10 03:43:41;;;;;;;7.47;6.63;;;-4.70;99.90;;;;;;5048758;28;20421;-64
2024/01/10 03:46:08;;;;;;;8.25;7.13;;;-4.70;99.90;;;;;;5032296;28;20433;-69
2024/01/10 03:48:35;;;;;;;8.77;7.53;;;-4.60;99.90;;;;;;5026703;28;20510;-64
2024/01/10 03:51:03;;;;;;;8.85;7.90;;;-4.60;99.90;;;;;;5021814;28;20929;-64
2024/01/10 03:53:30;;;;;;;8.95;7.50;;;-4.60;99.90;;;;;;5030855;28;20514;-64
2024/01/10 03:55:57;;;;;;;8.80;7.60;;;-4.60;99.90;;;;;;5026823;28;20522;-64
2024/01/10 03:58:24;;;;;;;9.15;7.78;;;-4.60;99.90;;;;;;5026804;28;20419;-64
2024/01/10 04:00:51;;;;;;;8.73;7.57;;;-4.60;99.90;;;;;;5021233;28;20419;-64
2024/01/10 04:03:18;;;;;;;9.50;8.50;;;-4.70;99.90;;;;;;5027227;28;20513;-64
2024/01/10 04:05:45;;;;;;;9.40;7.78;;;-4.60;99.90;;;;;;5026572;28;20509;-63
2024/01/10 04:08:13;;;;;;;9.13;8.13;;;-4.50;99.90;;;;;;5029400;28;20419;-64
2024/01/10 04:10:39;;;;;;;9.48;8.00;;;-4.50;99.90;;;;;;5026478;28;20438;-64
2024/01/10 04:13:06;;;;;;;9.32;7.80;;;-4.60;99.90;;;;;;5019888;28;20454;-64
2024/01/10 04:15:34;;;;;;;9.93;8.93;;;-4.70;99.90;;;;;;5025683;28;20430;-64
2024/01/10 04:18:01;;;;;;;8.85;7.50;;;-4.80;99.90;;;;;;5022462;28;20848;-64
2024/01/10 04:20:27;;;;;;;8.65;7.75;;;-4.80;99.90;;;;;;5025661;28;20403;-63
2024/01/10 04:22:54;;;;;;;9.73;8.60;;;-4.90;99.90;;;;;;5026488;28;20433;-64
2024/01/10 04:25:22;;;;;;;10.63;8.13;;;-4.80;99.90;;;;;;5030080;28;20411;-64
2024/01/10 04:27:50;;;;;;;9.35;8.32;;;-4.80;99.90;;;;;;5026059;28;20498;-63
2024/01/10 04:30:16;;;;;;;11.63;8.35;;;-4.80;99.90;;;;;;5025042;28;21137;-64
2024/01/10 04:32:43;;;;;;;8.20;7.40;;;-4.70;99.90;;;;;;5025422;28;20917;-64
2024/01/10 04:35:10;;;;;;;9.48;8.15;;;-4.80;99.90;;;;;;5030855;28;20538;-64
2024/01/10 04:37:37;;;;;;;8.75;7.60;;;-4.80;99.90;;;;;;5025424;28;20437;-64
2024/01/10 04:40:05;;;;;;;9.23;7.97;;;-4.70;99.90;;;;;;5024404;28;20411;-64
2024/01/10 04:42:33;;;;;;;10.60;8.30;;;-4.60;99.90;;;;;;5024526;28;20850;-63
2024/01/10 04:45:00;;;;;;;10.15;8.07;;;-4.60;99.90;;;;;;5025350;28;20430;-64
2024/01/10 04:47:26;;;;;;;9.82;7.90;;;-4.60;99.90;;;;;;5024816;28;20529;-64
2024/01/10 04:49:53;;;;;;;12.68;8.50;;;-4.60;99.90;;;;;;5024555;28;20426;-64
2024/01/10 04:52:20;;;;;;;9.10;8.20;;;-4.60;99.90;;;;;;5024587;28;20437;-63
2024/01/10 04:54:47;;;;;;;7.88;7.07;;;-4.60;99.90;;;;;;5026033;28;20415;-64
2024/01/10 04:57:13;;;;;;;9.45;7.72;;;-4.50;99.90;;;;;;5025745;28;20415;-64
2024/01/10 04:59:41;;;;;;;9.93;8.63;;;-4.60;99.90;;;;;;5022386;28;20411;-64
2024/01/10 05:02:08;;;;;;;9.52;8.10;;;-4.60;99.90;;;;;;5024199;28;20773;-64
2024/01/10 05:04:35;;;;;;;9.90;8.00;;;-4.60;99.90;;;;;;5025574;28;20417;-64
2024/01/10 05:07:02;;;;;;;10.43;8.50;;;-4.70;99.90;;;;;;5024007;28;20483;-64
2024/01/10 05:09:28;;;;;;;10.90;8.23;;;-4.60;99.90;;;;;;5024687;28;20411;-64
2024/01/10 05:11:55;;;;;;;8.70;7.80;;;-4.60;99.90;;;;;;5022477;28;20434;-64
2024/01/10 05:14:22;;;;;;;9.65;7.72;;;-4.60;99.90;;;;;;5022997;28;20805;-64
2024/01/10 05:16:51;;;;;;;8.43;7.40;;;-4.60;99.90;;;;;;5022722;28;20457;-64
2024/01/10 05:19:18;;;;;;;9.75;7.30;;;-4.60;99.90;;;;;;5020934;28;20830;-64
2024/01/10 05:21:45;;;;;;;9.63;7.78;;;-4.60;99.90;;;;;;5023593;28;20431;-65
2024/01/10 05:24:12;;;;;;;9.45;7.35;;;-4.60;99.90;;;;;;5026802;28;20441;-65
2024/01/10 05:26:39;;;;;;;8.40;7.45;;;-4.60;99.90;;;;;;5024544;28;20911;-64
2024/01/10 05:29:05;;;;;;;7.85;7.05;;;-4.60;99.90;;;;;;5027159;28;20553;-64
2024/01/10 05:31:32;;;;;;;8.80;7.43;;;-4.60;99.90;;;;;;5029900;28;20513;-64
2024/01/10 05:34:00;;;;;;;9.15;7.40;;;-4.70;99.90;;;;;;5023048;28;20949;-65
2024/01/10 05:36:27;;;;;;;9.00;8.10;;;-4.60;99.90;;;;;;5023224;28;21008;-64
2024/01/10 05:38:54;;;;;;;8.93;7.72;;;-4.70;99.90;;;;;;5020354;28;20422;-65
2024/01/10 05:41:20;;;;;;;8.70;7.82;;;-4.70;99.90;;;;;;5023159;28;20418;-64
2024/01/10 05:43:47;;;;;;;8.90;8.00;;;-4.70;99.90;;;;;;5023430;28;20861;-64
2024/01/10 05:46:16;;;;;;;9.15;8.20;;;-4.70;99.90;;;;;;5021596;28;20451;-64
2024/01/10 05:48:42;;;;;;;10.13;8.00;;;-4.70;99.90;;;;;;5021972;28;20435;-64
2024/01/10 05:51:10;;;;;;;10.02;8.40;;;-4.70;99.90;;;;;;5023609;28;20430;-64
2024/01/10 05:53:38;;;;;;;9.80;8.52;;;-4.70;99.90;;;;;;5023678;28;20500;-64
2024/01/10 05:56:07;;;;;;;10.20;9.10;;;-4.70;99.90;;;;;;5031516;28;20441;-65
2024/01/10 05:58:33;;;;;;;9.50;8.40;;;-4.80;99.90;;;;;;5050075;28;20529;-63
2024/01/10 06:01:00;;;;;;;9.83;8.33;;;-4.80;99.90;;;;;;5039215;28;20797;-65
2024/01/10 06:03:27;;;;;;;11.73;8.82;;;-4.80;99.90;;;;;;5030639;28;20417;-63
2024/01/10 06:05:54;;;;;;;10.27;8.67;;;-4.70;99.90;;;;;;5027836;28;20567;-62
2024/01/10 06:08:25;;;;;;;10.23;8.93;;;-4.80;99.90;;;;;;5028663;28;20441;-66
2024/01/10 06:10:52;;;;;;;11.85;9.40;;;-4.80;99.90;;;;;;5029059;28;20421;-63
2024/01/10 06:13:19;;;;;;;10.80;8.52;;;-4.70;99.90;;;;;;5030271;28;20519;-66
2024/01/10 06:15:45;;;;;;;10.43;8.90;;;-4.70;99.90;;;;;;5028426;28;20919;-63
2024/01/10 06:18:12;;;;;;;10.30;9.02;;;-4.70;99.90;;;;;;5028473;28;20418;-63
2024/01/10 06:20:39;;;;;;;11.15;9.38;;;-4.70;99.90;;;;;;5029417;28;20419;-63
2024/01/10 06:23:06;;;;;;;9.52;8.52;;;-4.70;99.90;;;;;;5028622;28;20492;-63
2024/01/10 06:25:34;;;;;;;11.90;9.40;;;-4.70;99.90;;;;;;5029510;28;20415;-63
2024/01/10 06:28:00;;;;;;;10.35;9.20;;;-4.70;99.90;;;;;;5028416;28;20414;-63
2024/01/10 06:30:28;;;;;;;9.80;8.70;;;-4.70;99.90;;;;;;5029483;28;20431;-63
2024/01/10 06:32:55;;;;;;;10.30;9.05;;;-4.70;99.90;;;;;;5029563;28;20434;-63
2024/01/10 06:35:21;;;;;;;15.50;9.30;;;-4.70;99.90;;;;;;5029949;28;20454;-65
2024/01/10 06:37:48;;;;;;;12.23;8.35;;;-4.80;99.90;;;;;;5027266;28;20435;-63
2024/01/10 06:40:16;;;;;;;10.80;8.32;;;-4.90;99.90;;;;;;5031120;28;20897;-63
2024/01/10 06:42:44;;;;;;;9.20;8.10;;;-4.90;99.90;;;;;;5030794;28;20454;-64
2024/01/10 06:45:12;;;;;;;9.63;8.63;;;-4.90;99.90;;;;;;5029811;28;20533;-63
2024/01/10 06:47:38;;;;;;;11.13;9.63;;;-5.00;99.90;;;;;;5029473;28;20441;-63
2024/01/10 06:50:07;;;;;;;10.88;9.48;;;-4.90;99.90;;;;;;5028239;28;20419;-63
2024/01/10 06:52:33;;;;;;;9.23;7.90;;;-4.90;99.90;;;;;;5026694;28;20452;-66
2024/01/10 06:55:00;;;;;;;10.73;8.27;;;-5.00;99.90;;;;;;5030406;28;20434;-63
2024/01/10 06:57:27;;;;;;;9.05;8.15;;;-5.00;99.90;;;;;;5031284;28;20437;-64
2024/01/10 06:59:55;;;;;;;10.40;8.80;;;-5.00;99.90;;;;;;5029855;28;20496;-63
2024/01/10 07:02:24;;;;;;;11.05;9.63;;;-5.00;99.90;;;;;;5031721;28;20689;-65
2024/01/10 07:04:50;;;;;;;9.38;8.35;;;-5.00;99.90;;;;;;5029369;28;20431;-63
2024/01/10 07:07:17;;;;;;;9.70;8.30;;;-5.00;99.90;;;;;;5028634;28;20422;-63
2024/01/10 07:09:44;;;;;;;10.68;8.95;;;-5.00;99.90;;;;;;5027278;28;20496;-63
2024/01/10 07:12:11;;;;;;;10.43;8.40;;;-5.10;99.90;;;;;;5027860;28;20418;-64
2024/01/10 07:14:37;;;;;;;10.07;8.77;;;-5.10;99.90;;;;;;5027217;28;20441;-63
2024/01/10 07:17:05;;;;;;;9.25;8.00;;;-5.00;99.90;;;;;;5026598;28;20411;-62
2024/01/10 07:19:32;;;;;;;10.02;8.18;;;-4.90;99.90;;;;;;5028366;28;20841;-63
2024/01/10 07:22:00;;;;;;;9.98;7.90;;;-4.90;99.90;;;;;;5026879;28;20419;-62
2024/01/10 07:24:27;;;;;;;8.90;7.30;;;-4.80;99.90;;;;;;5026946;28;20894;-63
2024/01/10 07:26:54;;;;;;;10.48;7.78;;;-4.80;99.90;;;;;;5028455;28;20414;-63
2024/01/10 07:29:20;;;;;;;9.37;8.03;;;-4.70;99.90;;;;;;5026991;28;20888;-62
2024/01/10 07:31:47;;;;;;;9.15;7.85;;;-4.70;99.90;;;;;;5027737;28;20526;-62
2024/01/10 07:34:15;;;;;;;10.50;7.60;;;-4.70;99.90;;;;;;5028419;28;20435;-62
2024/01/10 07:36:43;;;;;;;11.00;8.90;;;-4.70;99.90;;;;;;5028597;28;20794;-63
2024/01/10 07:39:10;;;;;;;10.43;8.70;;;-4.70;99.90;;;;;;5019503;28;20502;-63
2024/01/10 07:41:36;;;;;;;9.68;8.68;;;-4.80;99.90;;;;;;5028247;28;20488;-64
2024/01/10 07:44:03;;;;;;;10.57;9.48;;;-4.80;99.90;;;;;;5028546;28;20411;-63
2024/01/10 07:46:30;;;;;;;10.07;7.70;;;-4.80;99.90;;;;;;5027931;28;20430;-63
2024/01/10 07:48:57;;;;;;;9.70;8.70;;;-4.80;99.90;;;;;;5026810;28;20881;-63
2024/01/10 07:51:25;;;;;;;10.20;8.00;;;-4.80;99.90;;;;;;5028243;28;20467;-62
2024/01/10 07:53:52;;;;;;;7.82;7.00;;;-4.70;99.90;;;;;;5027099;28;20485;-63
2024/01/10 07:56:19;;;;;;;10.52;7.80;;;-4.60;99.90;;;;;;5027354;28;20418;-62
2024/01/10 07:58:46;;;;;;;8.88;7.10;;;-4.50;99.90;;;;;;5026577;28;20419;-62
2024/01/10 08:01:13;;;;;;;8.20;7.27;;;-4.40;99.90;;;;;;5030066;28;20425;-63
2024/01/10 08:03:40;;;;;;;9.18;7.60;;;-4.40;99.90;;;;;;5028106;28;20790;-63
2024/01/10 08:06:07;;;;;;;11.48;7.50;;;-4.40;99.90;;;;;;5034215;28;20442;-64
2024/01/10 08:08:35;;;;;;;10.23;7.47;;;-4.40;99.90;;;;;;5045218;28;20438;-63
2024/01/10 08:11:02;;;;;;;11.55;8.55;;;-4.40;99.90;;;;;;5044648;28;20425;-63
2024/01/10 08:13:29;;;;;;;10.45;8.85;;;-4.40;99.90;;;;;;5029524;28;20502;-63
2024/01/10 08:15:56;;;;;;;11.70;10.43;;;-4.40;99.90;;;;;;5027302;28;20941;-63
2024/01/10 08:18:22;;;;;;;11.20;9.13;;;-4.40;99.90;;;;;;5026676;28;20925;-62
2024/01/10 08:20:49;;;;;;;11.40;9.20;;;-4.50;99.90;;;;;;5027403;28;20422;-65
2024/01/10 08:23:16;;;;;;;10.02;9.02;;;-4.50;99.90;;;;;;5027053;28;20529;-63
2024/01/10 08:25:44;;;;;;;11.27;9.30;;;-4.50;99.90;;;;;;5027275;28;20415;-63
2024/01/10 08:28:13;;;;;;;13.77;9.47;;;-4.40;99.90;;;;;;5018499;28;20829;-63
2024/01/10 08:30:39;;;;;;;12.60;10.20;;;-4.40;99.90;;;;;;5026817;28;20438;-62
2024/01/10 08:33:06;;;;;;;10.20;8.80;;;-4.40;99.90;;;;;;5026888;28;20435;-63
2024/01/10 08:35:33;;;;;;;10.73;8.23;;;-4.40;99.90;;;;;;5027607;28;20510;-62
2024/01/10 08:38:02;;;;;;;10.10;8.40;;;-4.50;99.90;;;;;;5025690;28;20726;-62
2024/01/10 08:40:29;;;;;;;8.40;7.50;;;-4.50;99.90;;;;;;5019610;28;20453;-63
2024/01/10 08:42:57;;;;;;;11.75;8.00;;;-4.50;99.90;;;;;;5027700;28;20443;-63
2024/01/10 08:45:24;;;;;;;10.55;8.20;;;-4.40;99.90;;;;;;5026479;28;20921;-62
2024/01/10 08:47:51;;;;;;;9.25;7.95;;;-4.30;99.90;;;;;;5018983;28;20417;-62
2024/01/10 08:50:18;;;;;;;10.18;7.40;;;-4.30;99.90;;;;;;5027249;28;20419;-63
2024/01/10 08:52:44;;;;;;;8.30;7.32;;;-4.20;99.90;;;;;;5029358;28;20423;-62
2024/01/10 08:55:11;;;;;;;10.90;7.93;;;-4.20;99.00;;;;;;5048224;28;20402;-62
2024/01/10 08:57:38;;;;;;;11.87;8.47;;;-4.20;98.00;;;;;;5047609;28;20488;-62
2024/01/10 09:00:11;;;;;;;11.82;8.43;;;-4.20;98.30;;;;;;5047242;28;20415;-62
2024/01/10 09:02:38;;;;;;;11.95;8.23;;;-4.20;97.50;;;;;;5048900;28;20446;-62
2024/01/10 09:05:07;;;;;;;10.15;8.20;;;-4.10;96.00;;;;;;5048158;28;20514;-63
2024/01/10 09:07:34;;;;;;;12.25;8.13;;;-4.10;94.60;;;;;;5049121;28;20425;-62
2024/01/10 09:10:02;;;;;;;12.02;8.50;;;-4.00;95.00;;;;;;5047487;28;20403;-62
2024/01/10 09:12:28;;;;;;;12.20;8.63;;;-4.00;95.40;;;;;;5047278;28;20749;-62
2024/01/10 09:14:55;;;;;;;13.85;9.15;;;-4.00;94.30;;;;;;5044763;28;20424;-62
2024/01/10 09:17:23;;;;;;;12.88;8.77;;;-3.90;93.10;;;;;;5045731;28;20399;-62
2024/01/10 09:19:50;;;;;;;10.48;8.10;;;-3.80;93.20;;;;;;5042250;28;20472;-62
2024/01/10 09:22:17;;;;;;;9.90;7.88;;;-3.80;90.90;;;;;;5047355;28;20403;-63
2024/01/10 09:24:44;;;;;;;11.05;8.45;;;-3.70;90.90;;;;;;5035587;28;20427;-62
2024/01/10 09:27:11;;;;;;;10.30;8.20;;;-3.70;89.40;;;;;;5021392;28;20426;-61
2024/01/10 09:29:38;;;;;;;10.88;8.90;;;-3.70;90.60;;;;;;5025462;28;20711;-61
2024/01/10 09:32:05;;;;;;;10.60;8.30;;;-3.60;91.40;;;;;;5027573;28;21571;-62
2024/01/10 09:34:33;;;;;;;12.30;8.75;;;-3.60;90.30;;;;;;5028143;28;20431;-62
2024/01/10 09:37:01;;;;;;;11.73;8.60;;;-3.60;88.60;;;;;;5027564;28;20423;-62
2024/01/10 09:39:28;;;;;;;9.82;7.82;;;-3.50;89.10;;;;;;5025578;28;20510;-62
2024/01/10 09:41:55;;;;;;;11.27;8.60;;;-3.50;86.40;;;;;;5025871;28;20422;-62
2024/01/10 09:44:22;;;;;;;10.48;8.65;;;-3.40;86.40;;;;;;5024706;28;20439;-62
2024/01/10 09:46:53;;;;;;;12.23;8.50;;;-3.40;85.40;;;;;;5026304;28;20416;-61
2024/01/10 09:49:21;;;;;;;14.15;8.80;;;-3.30;84.80;;;;;;5031182;28;20423;-61
2024/01/10 09:51:50;;;;;;;12.38;8.75;;;-3.30;85.30;;;;;;5033572;28;20437;-61
2024/01/10 09:54:19;;;;;;;11.35;8.80;;;-3.30;80.80;;;;;;5027380;28;20453;-64
2024/01/10 09:56:46;;;;;;;11.83;9.30;;;-3.30;86.10;;;;;;5025434;28;20430;-61
2024/01/10 09:59:13;;;;;;;13.15;8.77;;;-3.20;84.20;;;;;;5023630;28;20430;-65
2024/01/10 10:01:40;;;;;;;14.32;8.98;;;-3.20;81.50;;;;;;5025452;28;20462;-62
2024/01/10 10:04:10;;;;;;;14.05;9.48;;;-3.20;82.30;;;;;;5025591;28;20434;-62
2024/01/10 10:06:37;;;;;;;15.80;9.13;;;-3.10;78.10;;;;;;5026598;28;20486;-64
2024/01/10 10:09:05;;;;;;;11.40;9.13;;;-3.10;77.40;;;;;;5025367;28;20557;-61
2024/01/10 10:11:32;;;;;;;12.07;9.55;;;-3.00;79.90;;;;;;5020705;28;20438;-64
2024/01/10 10:14:15;;;;;;;13.10;9.60;;;-3.00;84.00;;;;;;5025185;28;20893;-62
2024/01/10 10:16:42;;;;;;;11.25;9.00;;;-2.90;88.40;;;;;;5024505;28;20442;-62
2024/01/10 10:19:11;;;;;;;11.65;9.30;;;-2.70;85.80;;;;;;5025056;28;20529;-62
2024/01/10 10:21:38;;;;;;;11.50;8.90;;;-2.70;85.20;;;;;;5026273;28;20502;-62
2024/01/10 10:24:07;;;;;;;10.73;9.60;;;-2.60;81.90;;;;;;5025181;28;20430;-62
2024/01/10 10:26:34;;;;;;;11.02;9.65;;;-2.40;81.00;;;;;;5025717;28;20497;-62
2024/01/10 10:29:01;;;;;;;13.80;11.40;;;-2.20;74.10;;;;;;5022952;28;20435;-62
2024/01/10 10:31:31;;;;;;;14.05;12.10;;;-2.10;72.10;;;;;;5024115;28;20537;-62
2024/01/10 10:34:00;;;;;;;17.77;13.50;;;-2.00;72.20;;;;;;5024943;28;20431;-63
2024/01/10 10:36:27;;;;;;;12.75;9.88;;;-1.90;72.80;;;;;;5027953;28;20450;-62
2024/01/10 10:38:54;;;;;;;11.98;10.30;;;-1.90;71.40;;;;;;5027711;28;20434;-62
2024/01/10 10:41:22;;;;;;;11.73;10.25;;;-1.80;71.00;;;;;;5030028;28;20880;-62
2024/01/10 10:43:51;;;;;;;12.98;10.80;;;-1.80;69.10;;;;;;5045071;28;20447;-62
2024/01/10 10:46:17;;;;;;;12.73;9.93;;;-1.80;69.70;;;;;;5045984;28;20778;-62
2024/01/10 10:48:44;;;;;;;11.90;9.63;;;-1.80;70.10;;;;;;5031250;28;20422;-62
2024/01/10 10:51:13;;;;;;;11.48;9.63;;;-1.80;69.40;;;;;;5029915;28;20438;-62
2024/01/10 10:53:41;;;;;;;11.40;9.32;;;-1.90;67.30;;;;;;5030635;28;20766;-62
2024/01/10 10:56:08;;;;;;;12.48;10.43;;;-1.90;67.30;;;;;;5029140;28;20530;-62
2024/01/10 10:58:39;;;;;;;13.23;9.90;;;-1.80;67.80;;;;;;5027412;28;20462;-62
2024/01/10 11:01:10;;;;;;;12.80;10.20;;;-1.80;66.70;;;;;;5030078;28;20750;-62
2024/01/10 11:03:39;;;;;;;11.75;10.10;;;-1.80;67.80;;;;;;5028607;28;20965;-62
2024/01/10 11:06:06;;;;;;;13.05;10.55;;;-1.60;67.70;;;;;;5028265;28;20450;-62
2024/01/10 11:08:37;;;;;;;13.40;10.88;;;-1.50;68.00;;;;;;5026533;28;20415;-62
2024/01/10 11:11:08;;;;;;;13.25;9.70;;;-1.30;66.90;;;;;;5028445;28;20415;-62
2024/01/10 11:14:00;;;;;;;13.55;10.35;;;-1.20;65.70;;;;;;5024380;28;20426;-62
2024/01/10 11:16:49;;;;;;;16.17;10.70;;;-1.00;66.10;;;;;;5022948;28;20453;-62
2024/01/10 11:19:42;;;;;;;15.20;10.60;;;-1.00;65.10;;;;;;5027521;28;20830;-62
2024/01/10 11:22:24;;;;;;;12.90;10.60;;;-0.80;64.90;;;;;;5007125;28;20418;-62
2024/01/10 11:24:51;;;;;;;13.05;10.65;;;-0.80;64.80;;;;;;5029475;28;20403;-63
2024/01/10 11:27:17;;;;;;;13.35;10.70;;;-0.70;65.00;;;;;;5028014;28;20439;-64
2024/01/10 11:29:47;;;;;;;13.40;10.95;;;-0.60;64.50;;;;;;5032643;28;20526;-62
2024/01/10 11:32:16;;;;;;;13.32;11.57;;;-0.50;64.20;;;;;;5045201;28;20433;-62
2024/01/10 11:34:56;;;;;;;14.20;11.50;;;-0.40;64.50;;;;;;5045644;28;20756;-62
2024/01/10 11:37:23;;;;;;;14.85;10.90;;;-0.30;64.60;;;;;;5043091;28;20925;-63
2024/01/10 11:39:52;;;;;;;13.23;10.33;;;-0.20;64.10;;;;;;5042741;28;20426;-63
2024/01/10 11:42:23;;;;;;;12.57;10.40;;;-0.20;63.20;;;;;;5041112;28;20437;-63
2024/01/10 11:44:52;;;;;;;13.95;10.40;;;-0.20;62.40;;;;;;5037612;28;20918;-63
2024/01/10 11:47:20;;;;;;;12.68;10.70;;;-0.10;62.60;;;;;;5028541;28;20473;-63
2024/01/10 11:49:58;;;;;;;14.80;10.77;;;-0.10;62.40;;;;;;5027267;28;20510;-63
2024/01/10 11:52:32;;;;;;;13.55;10.68;;;0.00;62.10;;;;;;5020154;28;20549;-63
2024/01/10 11:54:59;;;;;;;13.23;10.95;;;0.10;62.50;;;;;;5026732;28;20891;-63
2024/01/10 11:57:28;;;;;;;13.80;11.03;;;0.20;61.70;;;;;;5025463;28;20848;-63
2024/01/10 11:59:59;;;;;;;13.93;11.15;;;0.30;62.00;;;;;;5027860;28;20426;-63
2024/01/10 12:02:26;;;;;;;15.93;11.50;;;0.40;61.40;;;;;;5027774;28;20423;-63
2024/01/10 12:04:54;;;;;;;14.18;11.10;;;0.40;61.50;;;;;;5026412;28;20446;-64
2024/01/10 12:07:21;;;;;;;14.38;12.20;;;0.50;60.90;;;;;;5025310;28;20415;-63
2024/01/10 12:09:49;;;;;;;16.75;11.38;;;0.70;60.40;;;;;;5026271;28;20431;-62
2024/01/10 12:12:17;;;;;;;14.50;11.95;;;1.10;59.80;;;;;;5019960;28;20438;-65
2024/01/10 12:14:44;;;;;;;14.00;11.57;;;1.60;58.90;;;;;;5022436;28;20629;-63
2024/01/10 12:17:12;;;;;;;13.88;11.88;;;2.50;57.40;;;;;;5026396;28;20908;-63
2024/01/10 12:19:39;;;;;;;14.23;11.27;;;3.40;54.30;;;;;;5023948;28;20883;-63
2024/01/10 12:22:06;;;;;;;13.30;11.90;;;4.00;51.80;;;;;;5026043;28;20870;-63
2024/01/10 12:24:33;;;;;;;14.73;11.77;;;4.20;50.80;;;;;;5025933;28;20479;-64
2024/01/10 12:27:00;;;;;;;16.93;12.53;;;4.20;49.20;;;;;;5024001;28;20435;-63
2024/01/10 12:29:27;;;;;;;16.17;12.07;;;3.80;48.80;;;;;;5022986;28;20442;-63
2024/01/10 12:31:54;;;;;;;13.93;12.00;;;3.50;50.20;;;;;;5025032;28;20415;-64
2024/01/10 12:34:22;;;;;;;12.68;11.20;;;3.00;49.80;;;;;;5026968;28;20443;-63
2024/01/10 12:36:49;;;;;;;16.58;12.38;;;2.40;51.40;;;;;;5023299;28;20443;-65
2024/01/10 12:39:16;;;;;;;14.68;12.30;;;2.10;53.10;;;;;;5025412;28;20421;-64
2024/01/10 12:41:44;;;;;;;14.20;11.63;;;1.80;53.30;;;;;;5025217;28;20423;-63